sensor_id;sensor_type;location;lat;lon;timestamp;pressure;altitude;pressure_sealevel;temperature
73937;BMP180;59249;59.736;30.568;2023-09-08T00:01:15;101776.00;;;12.80
73937;BMP180;59249;59.736;30.568;2023-09-08T00:03:44;101772.00;;;12.80
73937;BMP180;59249;59.736;30.568;2023-09-08T00:06:13;101768.00;;;12.80
73937;BMP180;59249;59.736;30.568;2023-09-08T00:08:43;101766.00;;;12.80
73937;BMP180;59249;59.736;30.568;2023-09-08T00:11:12;101771.00;;;12.80
73937;BMP180;59249;59.736;30.568;2023-09-08T00:13:41;101768.00;;;12.90
73937;BMP180;59249;59.736;30.568;2023-09-08T00:16:10;101767.00;;;12.90
73937;BMP180;59249;59.736;30.568;2023-09-08T00:18:40;101749.00;;;12.90
73937;BMP180;59249;59.736;30.568;2023-09-08T00:21:09;101757.00;;;12.80
73937;BMP180;59249;59.736;30.568;2023-09-08T00:23:38;101760.00;;;12.90
73937;BMP180;59249;59.736;30.568;2023-09-08T00:26:09;101754.00;;;12.90
73937;BMP180;59249;59.736;30.568;2023-09-08T00:28:40;101762.00;;;12.90
73937;BMP180;59249;59.736;30.568;2023-09-08T00:31:09;101764.00;;;12.90
73937;BMP180;59249;59.736;30.568;2023-09-08T00:33:38;101762.00;;;12.90
73937;BMP180;59249;59.736;30.568;2023-09-08T00:36:08;101756.00;;;12.90
73937;BMP180;59249;59.736;30.568;2023-09-08T00:38:36;101757.00;;;12.90
73937;BMP180;59249;59.736;30.568;2023-09-08T00:41:05;101754.00;;;12.90
73937;BMP180;59249;59.736;30.568;2023-09-08T00:43:36;101744.00;;;12.90
73937;BMP180;59249;59.736;30.568;2023-09-08T00:46:06;101754.00;;;12.80
73937;BMP180;59249;59.736;30.568;2023-09-08T00:48:35;101751.00;;;12.80
73937;BMP180;59249;59.736;30.568;2023-09-08T00:51:07;101749.00;;;12.90
73937;BMP180;59249;59.736;30.568;2023-09-08T00:53:37;101753.00;;;12.80
73937;BMP180;59249;59.736;30.568;2023-09-08T00:56:07;101754.00;;;12.90
73937;BMP180;59249;59.736;30.568;2023-09-08T00:58:39;101744.00;;;12.90
73937;BMP180;59249;59.736;30.568;2023-09-08T01:01:08;101743.00;;;12.80
73937;BMP180;59249;59.736;30.568;2023-09-08T01:03:36;101740.00;;;12.90
73937;BMP180;59249;59.736;30.568;2023-09-08T01:06:06;101731.00;;;12.90
73937;BMP180;59249;59.736;30.568;2023-09-08T01:08:35;101729.00;;;12.80
73937;BMP180;59249;59.736;30.568;2023-09-08T01:11:05;101733.00;;;12.80
73937;BMP180;59249;59.736;30.568;2023-09-08T01:13:35;101736.00;;;12.80
73937;BMP180;59249;59.736;30.568;2023-09-08T01:16:05;101729.00;;;12.80
73937;BMP180;59249;59.736;30.568;2023-09-08T01:18:34;101724.00;;;12.80
73937;BMP180;59249;59.736;30.568;2023-09-08T01:21:31;101730.00;;;12.80
73937;BMP180;59249;59.736;30.568;2023-09-08T01:27:36;101727.00;;;12.70
73937;BMP180;59249;59.736;30.568;2023-09-08T01:30:07;101721.00;;;12.60
73937;BMP180;59249;59.736;30.568;2023-09-08T01:32:37;101712.00;;;12.70
73937;BMP180;59249;59.736;30.568;2023-09-08T01:35:07;101707.00;;;12.70
73937;BMP180;59249;59.736;30.568;2023-09-08T01:37:39;101708.00;;;12.70
73937;BMP180;59249;59.736;30.568;2023-09-08T01:40:10;101713.00;;;12.70
73937;BMP180;59249;59.736;30.568;2023-09-08T01:42:45;101720.00;;;12.70
73937;BMP180;59249;59.736;30.568;2023-09-08T01:45:16;101708.00;;;12.70
73937;BMP180;59249;59.736;30.568;2023-09-08T01:47:45;101711.00;;;12.80
73937;BMP180;59249;59.736;30.568;2023-09-08T01:50:14;101712.00;;;12.80
73937;BMP180;59249;59.736;30.568;2023-09-08T01:52:48;101715.00;;;12.90
73937;BMP180;59249;59.736;30.568;2023-09-08T01:55:17;101711.00;;;12.90
73937;BMP180;59249;59.736;30.568;2023-09-08T01:57:49;101707.00;;;12.90
73937;BMP180;59249;59.736;30.568;2023-09-08T02:00:17;101707.00;;;13.00
73937;BMP180;59249;59.736;30.568;2023-09-08T02:02:47;101702.00;;;12.90
73937;BMP180;59249;59.736;30.568;2023-09-08T02:05:17;101695.00;;;13.00
73937;BMP180;59249;59.736;30.568;2023-09-08T02:07:48;101695.00;;;13.00
73937;BMP180;59249;59.736;30.568;2023-09-08T02:10:17;101699.00;;;13.00
73937;BMP180;59249;59.736;30.568;2023-09-08T02:12:49;101687.00;;;13.00
73937;BMP180;59249;59.736;30.568;2023-09-08T02:15:18;101694.00;;;13.10
73937;BMP180;59249;59.736;30.568;2023-09-08T02:17:50;101686.00;;;13.10
73937;BMP180;59249;59.736;30.568;2023-09-08T02:20:38;101692.00;;;13.10
73937;BMP180;59249;59.736;30.568;2023-09-08T02:23:07;101689.00;;;13.20
73937;BMP180;59249;59.736;30.568;2023-09-08T02:25:38;101687.00;;;13.20
73937;BMP180;59249;59.736;30.568;2023-09-08T02:28:08;101690.00;;;13.20
73937;BMP180;59249;59.736;30.568;2023-09-08T02:30:37;101683.00;;;13.20
73937;BMP180;59249;59.736;30.568;2023-09-08T02:33:06;101686.00;;;13.20
73937;BMP180;59249;59.736;30.568;2023-09-08T02:35:37;101684.00;;;13.20
73937;BMP180;59249;59.736;30.568;2023-09-08T02:38:08;101682.00;;;13.20
73937;BMP180;59249;59.736;30.568;2023-09-08T02:40:38;101680.00;;;13.20
73937;BMP180;59249;59.736;30.568;2023-09-08T02:43:08;101680.00;;;13.10
73937;BMP180;59249;59.736;30.568;2023-09-08T02:45:37;101672.00;;;13.20
73937;BMP180;59249;59.736;30.568;2023-09-08T02:48:07;101669.00;;;13.10
73937;BMP180;59249;59.736;30.568;2023-09-08T02:50:36;101661.00;;;13.20
73937;BMP180;59249;59.736;30.568;2023-09-08T02:53:05;101668.00;;;13.20
73937;BMP180;59249;59.736;30.568;2023-09-08T02:55:34;101665.00;;;13.20
73937;BMP180;59249;59.736;30.568;2023-09-08T02:58:03;101662.00;;;13.20
73937;BMP180;59249;59.736;30.568;2023-09-08T03:00:33;101664.00;;;13.30
73937;BMP180;59249;59.736;30.568;2023-09-08T03:03:03;101662.00;;;13.30
73937;BMP180;59249;59.736;30.568;2023-09-08T03:05:32;101662.00;;;13.30
73937;BMP180;59249;59.736;30.568;2023-09-08T03:08:01;101653.00;;;13.30
73937;BMP180;59249;59.736;30.568;2023-09-08T03:10:33;101646.00;;;13.30
73937;BMP180;59249;59.736;30.568;2023-09-08T03:13:03;101649.00;;;13.30
73937;BMP180;59249;59.736;30.568;2023-09-08T03:15:35;101649.00;;;13.40
73937;BMP180;59249;59.736;30.568;2023-09-08T03:18:07;101650.00;;;13.40
73937;BMP180;59249;59.736;30.568;2023-09-08T03:20:36;101649.00;;;13.40
73937;BMP180;59249;59.736;30.568;2023-09-08T03:23:04;101646.00;;;13.50
73937;BMP180;59249;59.736;30.568;2023-09-08T03:25:33;101648.00;;;13.50
73937;BMP180;59249;59.736;30.568;2023-09-08T03:28:03;101646.00;;;13.50
73937;BMP180;59249;59.736;30.568;2023-09-08T03:30:32;101647.00;;;13.60
73937;BMP180;59249;59.736;30.568;2023-09-08T03:33:02;101638.00;;;13.60
73937;BMP180;59249;59.736;30.568;2023-09-08T03:35:30;101636.00;;;13.60
73937;BMP180;59249;59.736;30.568;2023-09-08T03:37:59;101632.00;;;13.60
73937;BMP180;59249;59.736;30.568;2023-09-08T03:40:28;101638.00;;;13.60
73937;BMP180;59249;59.736;30.568;2023-09-08T03:42:59;101643.00;;;13.60
73937;BMP180;59249;59.736;30.568;2023-09-08T03:45:28;101648.00;;;13.60
73937;BMP180;59249;59.736;30.568;2023-09-08T03:47:57;101636.00;;;13.70
73937;BMP180;59249;59.736;30.568;2023-09-08T03:50:27;101635.00;;;13.60
73937;BMP180;59249;59.736;30.568;2023-09-08T03:52:56;101633.00;;;13.70
73937;BMP180;59249;59.736;30.568;2023-09-08T03:55:26;101639.00;;;13.70
73937;BMP180;59249;59.736;30.568;2023-09-08T03:57:55;101637.00;;;13.70
73937;BMP180;59249;59.736;30.568;2023-09-08T04:00:24;101635.00;;;13.80
73937;BMP180;59249;59.736;30.568;2023-09-08T04:02:54;101637.00;;;13.80
73937;BMP180;59249;59.736;30.568;2023-09-08T04:05:24;101631.00;;;13.80
73937;BMP180;59249;59.736;30.568;2023-09-08T04:07:54;101634.00;;;13.80
73937;BMP180;59249;59.736;30.568;2023-09-08T04:10:23;101629.00;;;13.90
73937;BMP180;59249;59.736;30.568;2023-09-08T04:12:53;101627.00;;;13.90
73937;BMP180;59249;59.736;30.568;2023-09-08T04:15:21;101628.00;;;14.00
73937;BMP180;59249;59.736;30.568;2023-09-08T04:17:50;101636.00;;;14.00
73937;BMP180;59249;59.736;30.568;2023-09-08T04:20:19;101634.00;;;14.10
73937;BMP180;59249;59.736;30.568;2023-09-08T04:22:50;101646.00;;;14.10
73937;BMP180;59249;59.736;30.568;2023-09-08T04:25:21;101639.00;;;14.10
73937;BMP180;59249;59.736;30.568;2023-09-08T04:27:50;101645.00;;;14.10
73937;BMP180;59249;59.736;30.568;2023-09-08T04:30:19;101650.00;;;14.20
73937;BMP180;59249;59.736;30.568;2023-09-08T04:32:48;101639.00;;;14.20
73937;BMP180;59249;59.736;30.568;2023-09-08T04:35:17;101642.00;;;14.20
73937;BMP180;59249;59.736;30.568;2023-09-08T04:37:46;101632.00;;;14.30
73937;BMP180;59249;59.736;30.568;2023-09-08T04:40:15;101636.00;;;14.30
73937;BMP180;59249;59.736;30.568;2023-09-08T04:42:47;101628.00;;;14.30
73937;BMP180;59249;59.736;30.568;2023-09-08T04:45:16;101623.00;;;14.40
73937;BMP180;59249;59.736;30.568;2023-09-08T04:47:45;101622.00;;;14.40
73937;BMP180;59249;59.736;30.568;2023-09-08T04:50:17;101618.00;;;14.50
73937;BMP180;59249;59.736;30.568;2023-09-08T04:52:46;101623.00;;;14.50
73937;BMP180;59249;59.736;30.568;2023-09-08T04:55:22;101622.00;;;14.60
73937;BMP180;59249;59.736;30.568;2023-09-08T04:57:52;101622.00;;;14.70
73937;BMP180;59249;59.736;30.568;2023-09-08T05:00:21;101616.00;;;14.70
73937;BMP180;59249;59.736;30.568;2023-09-08T05:02:51;101620.00;;;14.80
73937;BMP180;59249;59.736;30.568;2023-09-08T05:05:20;101622.00;;;14.90
73937;BMP180;59249;59.736;30.568;2023-09-08T05:07:49;101618.00;;;15.00
73937;BMP180;59249;59.736;30.568;2023-09-08T05:10:24;101604.00;;;15.20
73937;BMP180;59249;59.736;30.568;2023-09-08T05:12:55;101614.00;;;15.30
73937;BMP180;59249;59.736;30.568;2023-09-08T05:15:25;101608.00;;;15.30
73937;BMP180;59249;59.736;30.568;2023-09-08T05:17:55;101620.00;;;15.40
73937;BMP180;59249;59.736;30.568;2023-09-08T05:20:25;101619.00;;;15.50
73937;BMP180;59249;59.736;30.568;2023-09-08T05:22:54;101621.00;;;15.50
73937;BMP180;59249;59.736;30.568;2023-09-08T05:25:23;101615.00;;;15.60
73937;BMP180;59249;59.736;30.568;2023-09-08T05:27:52;101616.00;;;15.70
73937;BMP180;59249;59.736;30.568;2023-09-08T05:30:22;101617.00;;;15.80
73937;BMP180;59249;59.736;30.568;2023-09-08T05:32:51;101615.00;;;15.90
73937;BMP180;59249;59.736;30.568;2023-09-08T05:35:20;101618.00;;;16.00
73937;BMP180;59249;59.736;30.568;2023-09-08T05:37:49;101604.00;;;16.10
73937;BMP180;59249;59.736;30.568;2023-09-08T05:40:18;101609.00;;;16.20
73937;BMP180;59249;59.736;30.568;2023-09-08T05:42:48;101617.00;;;16.20
73937;BMP180;59249;59.736;30.568;2023-09-08T05:45:18;101604.00;;;16.30
73937;BMP180;59249;59.736;30.568;2023-09-08T05:47:48;101595.00;;;16.30
73937;BMP180;59249;59.736;30.568;2023-09-08T05:50:20;101607.00;;;16.40
73937;BMP180;59249;59.736;30.568;2023-09-08T05:52:51;101606.00;;;16.50
73937;BMP180;59249;59.736;30.568;2023-09-08T05:55:21;101613.00;;;16.50
73937;BMP180;59249;59.736;30.568;2023-09-08T05:57:50;101605.00;;;16.50
73937;BMP180;59249;59.736;30.568;2023-09-08T06:00:19;101601.00;;;16.60
73937;BMP180;59249;59.736;30.568;2023-09-08T06:02:52;101603.00;;;16.60
73937;BMP180;59249;59.736;30.568;2023-09-08T06:05:21;101604.00;;;16.70
73937;BMP180;59249;59.736;30.568;2023-09-08T06:07:50;101597.00;;;16.80
73937;BMP180;59249;59.736;30.568;2023-09-08T06:10:35;101600.00;;;16.90
73937;BMP180;59249;59.736;30.568;2023-09-08T06:13:04;101603.00;;;17.10
73937;BMP180;59249;59.736;30.568;2023-09-08T06:15:33;101592.00;;;17.20
73937;BMP180;59249;59.736;30.568;2023-09-08T06:18:04;101587.00;;;17.40
73937;BMP180;59249;59.736;30.568;2023-09-08T06:20:34;101597.00;;;17.50
73937;BMP180;59249;59.736;30.568;2023-09-08T06:23:03;101598.00;;;17.70
73937;BMP180;59249;59.736;30.568;2023-09-08T06:25:32;101597.00;;;17.70
73937;BMP180;59249;59.736;30.568;2023-09-08T06:28:01;101602.00;;;17.80
73937;BMP180;59249;59.736;30.568;2023-09-08T06:30:30;101591.00;;;17.70
73937;BMP180;59249;59.736;30.568;2023-09-08T06:32:59;101597.00;;;17.80
73937;BMP180;59249;59.736;30.568;2023-09-08T06:35:30;101595.00;;;17.80
73937;BMP180;59249;59.736;30.568;2023-09-08T06:38:01;101586.00;;;17.70
73937;BMP180;59249;59.736;30.568;2023-09-08T06:40:30;101584.00;;;17.90
73937;BMP180;59249;59.736;30.568;2023-09-08T06:42:58;101589.00;;;17.90
73937;BMP180;59249;59.736;30.568;2023-09-08T06:45:51;101590.00;;;18.00
73937;BMP180;59249;59.736;30.568;2023-09-08T06:48:22;101594.00;;;18.10
73937;BMP180;59249;59.736;30.568;2023-09-08T06:50:56;101601.00;;;18.20
73937;BMP180;59249;59.736;30.568;2023-09-08T06:53:27;101594.00;;;18.40
73937;BMP180;59249;59.736;30.568;2023-09-08T06:55:56;101604.00;;;18.30
73937;BMP180;59249;59.736;30.568;2023-09-08T06:58:25;101606.00;;;18.40
73937;BMP180;59249;59.736;30.568;2023-09-08T07:00:54;101602.00;;;18.50
73937;BMP180;59249;59.736;30.568;2023-09-08T07:03:23;101606.00;;;18.30
73937;BMP180;59249;59.736;30.568;2023-09-08T07:05:55;101602.00;;;18.20
73937;BMP180;59249;59.736;30.568;2023-09-08T07:08:24;101598.00;;;18.20
73937;BMP180;59249;59.736;30.568;2023-09-08T07:10:53;101601.00;;;18.30
73937;BMP180;59249;59.736;30.568;2023-09-08T07:13:22;101592.00;;;18.30
73937;BMP180;59249;59.736;30.568;2023-09-08T07:15:51;101589.00;;;18.30
73937;BMP180;59249;59.736;30.568;2023-09-08T07:18:20;101593.00;;;18.40
73937;BMP180;59249;59.736;30.568;2023-09-08T07:20:49;101590.00;;;18.50
73937;BMP180;59249;59.736;30.568;2023-09-08T07:23:21;101582.00;;;18.60
73937;BMP180;59249;59.736;30.568;2023-09-08T07:25:51;101592.00;;;18.90
73937;BMP180;59249;59.736;30.568;2023-09-08T07:28:24;101590.00;;;18.90
73937;BMP180;59249;59.736;30.568;2023-09-08T07:31:00;101585.00;;;19.00
73937;BMP180;59249;59.736;30.568;2023-09-08T07:33:32;101585.00;;;19.10
73937;BMP180;59249;59.736;30.568;2023-09-08T07:36:04;101582.00;;;19.20
73937;BMP180;59249;59.736;30.568;2023-09-08T07:38:35;101578.00;;;19.30
73937;BMP180;59249;59.736;30.568;2023-09-08T07:41:05;101574.00;;;19.40
73937;BMP180;59249;59.736;30.568;2023-09-08T07:43:34;101586.00;;;19.50
73937;BMP180;59249;59.736;30.568;2023-09-08T07:46:10;101589.00;;;19.60
73937;BMP180;59249;59.736;30.568;2023-09-08T07:48:39;101582.00;;;19.80
73937;BMP180;59249;59.736;30.568;2023-09-08T07:51:08;101590.00;;;19.90
73937;BMP180;59249;59.736;30.568;2023-09-08T07:53:38;101579.00;;;19.90
73937;BMP180;59249;59.736;30.568;2023-09-08T07:56:07;101586.00;;;19.90
73937;BMP180;59249;59.736;30.568;2023-09-08T07:58:36;101583.00;;;20.00
73937;BMP180;59249;59.736;30.568;2023-09-08T08:01:06;101583.00;;;20.00
73937;BMP180;59249;59.736;30.568;2023-09-08T08:03:35;101583.00;;;20.00
73937;BMP180;59249;59.736;30.568;2023-09-08T08:06:05;101579.00;;;20.10
73937;BMP180;59249;59.736;30.568;2023-09-08T08:08:34;101587.00;;;20.10
73937;BMP180;59249;59.736;30.568;2023-09-08T08:11:10;101593.00;;;20.00
73937;BMP180;59249;59.736;30.568;2023-09-08T08:13:40;101595.00;;;20.00
73937;BMP180;59249;59.736;30.568;2023-09-08T08:16:12;101592.00;;;19.90
73937;BMP180;59249;59.736;30.568;2023-09-08T08:18:41;101598.00;;;19.90
73937;BMP180;59249;59.736;30.568;2023-09-08T08:21:10;101595.00;;;19.90
73937;BMP180;59249;59.736;30.568;2023-09-08T08:23:39;101602.00;;;19.90
73937;BMP180;59249;59.736;30.568;2023-09-08T08:26:09;101595.00;;;19.90
73937;BMP180;59249;59.736;30.568;2023-09-08T08:28:38;101591.00;;;19.80
73937;BMP180;59249;59.736;30.568;2023-09-08T08:31:07;101591.00;;;19.90
73937;BMP180;59249;59.736;30.568;2023-09-08T08:33:36;101579.00;;;19.90
73937;BMP180;59249;59.736;30.568;2023-09-08T08:36:06;101582.00;;;19.90
73937;BMP180;59249;59.736;30.568;2023-09-08T08:38:36;101586.00;;;19.90
73937;BMP180;59249;59.736;30.568;2023-09-08T08:41:05;101575.00;;;19.90
73937;BMP180;59249;59.736;30.568;2023-09-08T08:43:35;101581.00;;;19.80
73937;BMP180;59249;59.736;30.568;2023-09-08T08:46:08;101569.00;;;19.70
73937;BMP180;59249;59.736;30.568;2023-09-08T08:48:40;101576.00;;;19.80
73937;BMP180;59249;59.736;30.568;2023-09-08T08:51:10;101569.00;;;19.80
73937;BMP180;59249;59.736;30.568;2023-09-08T08:53:43;101563.00;;;19.90
73937;BMP180;59249;59.736;30.568;2023-09-08T08:56:12;101565.00;;;19.90
73937;BMP180;59249;59.736;30.568;2023-09-08T08:58:43;101560.00;;;20.10
73937;BMP180;59249;59.736;30.568;2023-09-08T09:01:13;101558.00;;;20.10
73937;BMP180;59249;59.736;30.568;2023-09-08T09:03:46;101552.00;;;20.00
73937;BMP180;59249;59.736;30.568;2023-09-08T09:06:20;101554.00;;;19.90
73937;BMP180;59249;59.736;30.568;2023-09-08T09:08:50;101560.00;;;19.90
73937;BMP180;59249;59.736;30.568;2023-09-08T09:11:19;101565.00;;;19.80
73937;BMP180;59249;59.736;30.568;2023-09-08T09:13:49;101558.00;;;19.90
73937;BMP180;59249;59.736;30.568;2023-09-08T09:16:17;101546.00;;;20.00
73937;BMP180;59249;59.736;30.568;2023-09-08T09:18:54;101555.00;;;20.00
73937;BMP180;59249;59.736;30.568;2023-09-08T09:21:24;101550.00;;;20.20
73937;BMP180;59249;59.736;30.568;2023-09-08T09:24:14;101556.00;;;20.20
73937;BMP180;59249;59.736;30.568;2023-09-08T09:26:51;101554.00;;;20.30
73937;BMP180;59249;59.736;30.568;2023-09-08T09:29:22;101554.00;;;20.40
73937;BMP180;59249;59.736;30.568;2023-09-08T09:31:52;101556.00;;;20.50
73937;BMP180;59249;59.736;30.568;2023-09-08T09:34:22;101559.00;;;20.70
73937;BMP180;59249;59.736;30.568;2023-09-08T09:36:52;101559.00;;;20.90
73937;BMP180;59249;59.736;30.568;2023-09-08T09:39:22;101554.00;;;20.90
73937;BMP180;59249;59.736;30.568;2023-09-08T09:41:53;101572.00;;;21.00
73937;BMP180;59249;59.736;30.568;2023-09-08T09:44:24;101563.00;;;21.10
73937;BMP180;59249;59.736;30.568;2023-09-08T09:46:54;101562.00;;;20.90
73937;BMP180;59249;59.736;30.568;2023-09-08T09:49:23;101558.00;;;21.00
73937;BMP180;59249;59.736;30.568;2023-09-08T09:51:55;101560.00;;;20.90
73937;BMP180;59249;59.736;30.568;2023-09-08T09:54:24;101556.00;;;20.80
73937;BMP180;59249;59.736;30.568;2023-09-08T09:56:53;101569.00;;;21.00
73937;BMP180;59249;59.736;30.568;2023-09-08T09:59:23;101564.00;;;21.00
73937;BMP180;59249;59.736;30.568;2023-09-08T10:01:53;101569.00;;;21.00
73937;BMP180;59249;59.736;30.568;2023-09-08T10:04:23;101577.00;;;21.20
73937;BMP180;59249;59.736;30.568;2023-09-08T10:06:53;101574.00;;;21.30
73937;BMP180;59249;59.736;30.568;2023-09-08T10:09:24;101576.00;;;21.40
73937;BMP180;59249;59.736;30.568;2023-09-08T10:11:54;101569.00;;;21.50
73937;BMP180;59249;59.736;30.568;2023-09-08T10:14:30;101562.00;;;21.40
73937;BMP180;59249;59.736;30.568;2023-09-08T10:17:00;101570.00;;;21.50
73937;BMP180;59249;59.736;30.568;2023-09-08T10:19:31;101565.00;;;21.50
73937;BMP180;59249;59.736;30.568;2023-09-08T10:22:06;101566.00;;;21.50
73937;BMP180;59249;59.736;30.568;2023-09-08T10:24:41;101578.00;;;21.70
73937;BMP180;59249;59.736;30.568;2023-09-08T10:27:13;101572.00;;;21.70
73937;BMP180;59249;59.736;30.568;2023-09-08T10:29:48;101574.00;;;21.80
73937;BMP180;59249;59.736;30.568;2023-09-08T10:32:18;101580.00;;;22.00
73937;BMP180;59249;59.736;30.568;2023-09-08T10:34:49;101583.00;;;22.10
73937;BMP180;59249;59.736;30.568;2023-09-08T10:37:22;101581.00;;;22.00
73937;BMP180;59249;59.736;30.568;2023-09-08T10:39:52;101579.00;;;22.20
73937;BMP180;59249;59.736;30.568;2023-09-08T10:42:25;101582.00;;;22.00
73937;BMP180;59249;59.736;30.568;2023-09-08T10:44:59;101575.00;;;21.80
73937;BMP180;59249;59.736;30.568;2023-09-08T10:47:33;101570.00;;;21.90
73937;BMP180;59249;59.736;30.568;2023-09-08T10:50:16;101568.00;;;22.00
73937;BMP180;59249;59.736;30.568;2023-09-08T10:53:04;101572.00;;;21.90
73937;BMP180;59249;59.736;30.568;2023-09-08T10:55:39;101570.00;;;21.90
73937;BMP180;59249;59.736;30.568;2023-09-08T10:58:10;101569.00;;;21.70
73937;BMP180;59249;59.736;30.568;2023-09-08T11:00:45;101569.00;;;21.60
73937;BMP180;59249;59.736;30.568;2023-09-08T11:03:27;101570.00;;;21.60
73937;BMP180;59249;59.736;30.568;2023-09-08T11:06:11;101563.00;;;21.50
73937;BMP180;59249;59.736;30.568;2023-09-08T11:08:42;101576.00;;;21.50
73937;BMP180;59249;59.736;30.568;2023-09-08T11:11:13;101580.00;;;21.50
73937;BMP180;59249;59.736;30.568;2023-09-08T11:13:43;101568.00;;;21.50
73937;BMP180;59249;59.736;30.568;2023-09-08T11:16:16;101566.00;;;21.60
73937;BMP180;59249;59.736;30.568;2023-09-08T11:18:51;101573.00;;;21.70
73937;BMP180;59249;59.736;30.568;2023-09-08T11:21:20;101571.00;;;21.80
73937;BMP180;59249;59.736;30.568;2023-09-08T11:23:49;101566.00;;;21.80
73937;BMP180;59249;59.736;30.568;2023-09-08T11:26:18;101570.00;;;21.90
73937;BMP180;59249;59.736;30.568;2023-09-08T11:28:48;101567.00;;;22.00
73937;BMP180;59249;59.736;30.568;2023-09-08T11:31:19;101574.00;;;22.00
73937;BMP180;59249;59.736;30.568;2023-09-08T11:33:49;101573.00;;;21.90
73937;BMP180;59249;59.736;30.568;2023-09-08T11:36:17;101581.00;;;21.90
73937;BMP180;59249;59.736;30.568;2023-09-08T11:38:47;101576.00;;;21.90
73937;BMP180;59249;59.736;30.568;2023-09-08T11:41:16;101571.00;;;21.90
73937;BMP180;59249;59.736;30.568;2023-09-08T11:43:49;101566.00;;;22.00
73937;BMP180;59249;59.736;30.568;2023-09-08T11:46:21;101569.00;;;22.10
73937;BMP180;59249;59.736;30.568;2023-09-08T11:48:50;101570.00;;;22.10
73937;BMP180;59249;59.736;30.568;2023-09-08T11:51:22;101572.00;;;22.00
73937;BMP180;59249;59.736;30.568;2023-09-08T11:53:52;101577.00;;;22.20
73937;BMP180;59249;59.736;30.568;2023-09-08T11:56:22;101574.00;;;22.10
73937;BMP180;59249;59.736;30.568;2023-09-08T11:58:52;101575.00;;;22.00
73937;BMP180;59249;59.736;30.568;2023-09-08T12:01:23;101573.00;;;22.00
73937;BMP180;59249;59.736;30.568;2023-09-08T12:03:53;101573.00;;;22.00
73937;BMP180;59249;59.736;30.568;2023-09-08T12:06:24;101570.00;;;22.00
73937;BMP180;59249;59.736;30.568;2023-09-08T12:08:55;101579.00;;;22.10
73937;BMP180;59249;59.736;30.568;2023-09-08T12:11:32;101574.00;;;22.00
73937;BMP180;59249;59.736;30.568;2023-09-08T12:14:11;101578.00;;;22.00
73937;BMP180;59249;59.736;30.568;2023-09-08T12:16:42;101577.00;;;21.90
73937;BMP180;59249;59.736;30.568;2023-09-08T12:19:30;101578.00;;;21.90
73937;BMP180;59249;59.736;30.568;2023-09-08T12:22:03;101591.00;;;21.70
73937;BMP180;59249;59.736;30.568;2023-09-08T12:24:46;101588.00;;;21.60
73937;BMP180;59249;59.736;30.568;2023-09-08T12:27:17;101590.00;;;21.60
73937;BMP180;59249;59.736;30.568;2023-09-08T12:29:54;101582.00;;;21.60
73937;BMP180;59249;59.736;30.568;2023-09-08T12:32:28;101575.00;;;21.50
73937;BMP180;59249;59.736;30.568;2023-09-08T12:34:59;101586.00;;;21.40
73937;BMP180;59249;59.736;30.568;2023-09-08T12:37:33;101587.00;;;21.30
73937;BMP180;59249;59.736;30.568;2023-09-08T12:40:04;101580.00;;;21.20
73937;BMP180;59249;59.736;30.568;2023-09-08T12:42:33;101579.00;;;21.20
73937;BMP180;59249;59.736;30.568;2023-09-08T12:45:14;101574.00;;;21.20
73937;BMP180;59249;59.736;30.568;2023-09-08T12:47:45;101578.00;;;21.20
73937;BMP180;59249;59.736;30.568;2023-09-08T12:50:13;101578.00;;;21.20
73937;BMP180;59249;59.736;30.568;2023-09-08T12:52:43;101566.00;;;21.00
73937;BMP180;59249;59.736;30.568;2023-09-08T12:55:12;101573.00;;;21.00
73937;BMP180;59249;59.736;30.568;2023-09-08T12:57:41;101569.00;;;21.00
73937;BMP180;59249;59.736;30.568;2023-09-08T13:00:11;101572.00;;;20.90
73937;BMP180;59249;59.736;30.568;2023-09-08T13:02:41;101573.00;;;21.00
73937;BMP180;59249;59.736;30.568;2023-09-08T13:05:11;101572.00;;;20.90
73937;BMP180;59249;59.736;30.568;2023-09-08T13:07:40;101572.00;;;20.90
73937;BMP180;59249;59.736;30.568;2023-09-08T13:10:09;101569.00;;;20.80
73937;BMP180;59249;59.736;30.568;2023-09-08T13:12:38;101568.00;;;20.80
73937;BMP180;59249;59.736;30.568;2023-09-08T13:15:08;101568.00;;;20.80
73937;BMP180;59249;59.736;30.568;2023-09-08T13:17:37;101563.00;;;20.80
73937;BMP180;59249;59.736;30.568;2023-09-08T13:20:07;101566.00;;;20.70
73937;BMP180;59249;59.736;30.568;2023-09-08T13:22:38;101571.00;;;20.70
73937;BMP180;59249;59.736;30.568;2023-09-08T13:25:08;101571.00;;;20.80
73937;BMP180;59249;59.736;30.568;2023-09-08T13:27:40;101568.00;;;20.90
73937;BMP180;59249;59.736;30.568;2023-09-08T13:30:11;101560.00;;;20.90
73937;BMP180;59249;59.736;30.568;2023-09-08T13:32:41;101562.00;;;21.00
73937;BMP180;59249;59.736;30.568;2023-09-08T13:35:10;101560.00;;;21.10
73937;BMP180;59249;59.736;30.568;2023-09-08T13:37:41;101560.00;;;21.10
73937;BMP180;59249;59.736;30.568;2023-09-08T13:40:12;101558.00;;;21.10
73937;BMP180;59249;59.736;30.568;2023-09-08T13:42:45;101565.00;;;21.10
73937;BMP180;59249;59.736;30.568;2023-09-08T13:45:14;101564.00;;;21.10
73937;BMP180;59249;59.736;30.568;2023-09-08T13:47:43;101567.00;;;21.20
73937;BMP180;59249;59.736;30.568;2023-09-08T13:50:12;101567.00;;;21.30
73937;BMP180;59249;59.736;30.568;2023-09-08T13:52:45;101566.00;;;21.40
73937;BMP180;59249;59.736;30.568;2023-09-08T13:55:16;101561.00;;;21.20
73937;BMP180;59249;59.736;30.568;2023-09-08T13:58:04;101580.00;;;21.00
73937;BMP180;59249;59.736;30.568;2023-09-08T14:00:36;101566.00;;;20.70
73937;BMP180;59249;59.736;30.568;2023-09-08T14:03:11;101576.00;;;20.60
73937;BMP180;59249;59.736;30.568;2023-09-08T14:05:46;101569.00;;;20.40
73937;BMP180;59249;59.736;30.568;2023-09-08T14:08:22;101563.00;;;20.10